Llanfairfechan, United Kingdom
Current Conditions -  °F | °C
As of 5:50 PM on Monday 24 Nov 2014 (Local Time) from EGOV Reporting Station
Overcast Overcast  
Wind Chill:   Ceiling: 15000
Heat Index:   Visibility: 6mi
Dew Point:   Wind: 7mph
Humidity: 82%   Direction: 160°SSE
Pressure: 30.27"   Gusts: NA
Location:  53.26°N, 3.97°W
Report Text: EGOV 241750Z 16006KT 9999 FEW046 OVC150 09/06 Q1025 BLU NOSIG
Loading
Personal Weather Stations






























Interactive Weather Map New forecast layout! Learn more

10-Day Weather Forecast

Advertisements
Track Severe Weather on mobile